Rockefeller, Pennsylvania
Current Conditions -  °F | °C
As of 10:53 PM on Wednesday 17 Dec 2014 (Local Time) from KSEG Reporting Station
Clear Clear  
Wind Chill: 28°   Ceiling: Unl
Heat Index: 36°   Visibility: 10mi
Dew Point: 21°   Wind: 10mph
Humidity: 55%   Direction: 270°W
Pressure: 30.01"   Gusts: 22mph
Location:  40.83°N, 76.761°W
Report Text: KSEG 180353Z AUTO 27009G19KT 10SM CLR 02/M06 A3001 RMK AO2 SLP163 T00221061
Loading
Personal Weather Stations






























Interactive Weather Map New forecast layout! Learn more

10-Day Weather Forecast

Advertisements
Track Severe Weather on mobile